Time;durP1;ratioP1;P1;durP2;ratioP2;P2;SDS_P1;SDS_P2;PMS_P1;PMS_P2;Temp;Humidity;BMP_temperature;BMP_pressure;BME280_temperature;BME280_humidity;BME280_pressure;Samples;Min_cycle;Max_cycle;Signal;HPM_P1;HPM_P2
2021/07/22 00:00:53;;;;;;;15.77;9.57;;;;;;;;;;5092026;28;20047;-49
2021/07/22 00:03:18;;;;;;;13.38;8.40;;;;;;;;;;5068927;28;20025;-50
2021/07/22 00:05:44;;;;;;;11.10;7.80;;;;;;;;;;5088424;28;20024;-51
2021/07/22 00:08:13;;;;;;;12.43;8.45;;;;;;;;;;5076390;28;20024;-49
2021/07/22 00:10:40;;;;;;;14.27;8.60;;;;;;;;;;5082765;28;20029;-49
2021/07/22 00:13:06;;;;;;;12.07;8.18;;;;;;;;;;5076727;28;20036;-49
2021/07/22 00:15:32;;;;;;;13.30;8.13;;;;;;;;;;5063240;28;20020;-51
2021/07/22 00:17:58;;;;;;;14.10;8.57;;;;;;;;;;5091480;28;20031;-50
2021/07/22 00:20:24;;;;;;;12.43;8.65;;;;;;;;;;5092002;28;20020;-51
2021/07/22 00:22:50;;;;;;;12.07;8.15;;;;;;;;;;5091770;28;20028;-49
2021/07/22 00:25:16;;;;;;;13.95;9.40;;;;;;;;;;5091985;28;20031;-49
2021/07/22 00:27:42;;;;;;;14.88;9.73;;;;;;;;;;5091691;28;20024;-51
2021/07/22 00:30:08;;;;;;;13.23;8.60;;;;;;;;;;5091675;28;20050;-50
2021/07/22 00:32:35;;;;;;;13.38;8.57;;;;;;;;;;5091712;28;20089;-50
2021/07/22 00:35:01;;;;;;;13.00;8.35;;;;;;;;;;5092227;28;20120;-49
2021/07/22 00:37:27;;;;;;;15.20;8.57;;;;;;;;;;5085235;28;20036;-50
2021/07/22 00:39:53;;;;;;;17.95;8.98;;;;;;;;;;5091129;28;20035;-50
2021/07/22 00:42:19;;;;;;;11.98;8.75;;;;;;;;;;5095275;28;20099;-49
2021/07/22 00:44:45;;;;;;;14.52;9.40;;;;;;;;;;5095458;28;20548;-50
2021/07/22 00:47:11;;;;;;;13.68;8.35;;;;;;;;;;5095360;28;20028;-50
2021/07/22 00:49:37;;;;;;;14.70;8.65;;;;;;;;;;5095309;28;20035;-50
2021/07/22 00:52:03;;;;;;;16.40;9.02;;;;;;;;;;5095105;28;20032;-49
2021/07/22 00:54:29;;;;;;;15.13;9.60;;;;;;;;;;5095259;28;20032;-50
2021/07/22 00:56:55;;;;;;;13.75;9.18;;;;;;;;;;5095499;28;20051;-50
2021/07/22 00:59:21;;;;;;;16.52;8.80;;;;;;;;;;5095028;28;20115;-49
2021/07/22 01:01:47;;;;;;;14.40;9.02;;;;;;;;;;5095047;28;20475;-51
2021/07/22 01:04:13;;;;;;;11.75;7.82;;;;;;;;;;5068175;28;20021;-49
2021/07/22 01:06:39;;;;;;;13.35;8.77;;;;;;;;;;5070295;28;20053;-49
2021/07/22 01:09:05;;;;;;;14.98;9.35;;;;;;;;;;5092384;28;20051;-50
2021/07/22 01:11:31;;;;;;;13.25;8.52;;;;;;;;;;5078774;28;20052;-49
2021/07/22 01:13:57;;;;;;;14.80;9.30;;;;;;;;;;5072664;28;20052;-49
2021/07/22 01:16:23;;;;;;;14.90;8.00;;;;;;;;;;5080006;28;20035;-50
2021/07/22 01:18:49;;;;;;;15.73;8.80;;;;;;;;;;5094458;28;20511;-52
2021/07/22 01:21:15;;;;;;;12.50;8.60;;;;;;;;;;5094888;28;20085;-51
2021/07/22 01:23:41;;;;;;;13.50;8.20;;;;;;;;;;5094705;28;20056;-52
2021/07/22 01:26:07;;;;;;;11.90;8.43;;;;;;;;;;5094813;28;20021;-51
2021/07/22 01:28:33;;;;;;;15.13;9.50;;;;;;;;;;5094461;28;20024;-49
2021/07/22 01:30:59;;;;;;;14.05;8.32;;;;;;;;;;5094482;28;20093;-49
2021/07/22 01:33:25;;;;;;;16.35;8.93;;;;;;;;;;5094822;28;20020;-49
2021/07/22 01:35:51;;;;;;;14.43;9.25;;;;;;;;;;5084804;28;20033;-50
2021/07/22 01:38:17;;;;;;;14.75;8.68;;;;;;;;;;5092715;28;20028;-50
2021/07/22 01:40:43;;;;;;;16.60;8.85;;;;;;;;;;5094477;28;20024;-49
2021/07/22 01:43:09;;;;;;;13.77;9.40;;;;;;;;;;5094467;28;20073;-49
2021/07/22 01:45:35;;;;;;;15.65;8.73;;;;;;;;;;5094328;28;20119;-49
2021/07/22 01:48:00;;;;;;;12.27;8.35;;;;;;;;;;5081466;28;20079;-49
2021/07/22 01:50:26;;;;;;;17.00;9.63;;;;;;;;;;5080336;28;20758;-49
2021/07/22 01:52:52;;;;;;;16.02;8.95;;;;;;;;;;5093873;28;20448;-49
2021/07/22 01:55:18;;;;;;;12.10;8.32;;;;;;;;;;5094362;28;20031;-49
2021/07/22 01:57:44;;;;;;;14.13;9.15;;;;;;;;;;5093841;28;20020;-51
2021/07/22 02:00:11;;;;;;;15.82;9.63;;;;;;;;;;5094010;28;20020;-51
2021/07/22 02:02:37;;;;;;;15.00;9.20;;;;;;;;;;5082534;28;20025;-50
2021/07/22 02:05:03;;;;;;;15.00;9.13;;;;;;;;;;5078800;28;20020;-49
2021/07/22 02:07:29;;;;;;;14.18;9.40;;;;;;;;;;5068544;28;20523;-49
2021/07/22 02:09:55;;;;;;;13.07;9.18;;;;;;;;;;5090574;28;20056;-50
2021/07/22 02:12:21;;;;;;;16.20;9.30;;;;;;;;;;5080204;28;20020;-49
2021/07/22 02:14:50;;;;;;;13.52;8.77;;;;;;;;;;5058432;28;20108;-52
2021/07/22 02:17:17;;;;;;;14.43;9.10;;;;;;;;;;5093570;28;20031;-50
2021/07/22 02:19:43;;;;;;;14.23;8.63;;;;;;;;;;5093574;28;20023;-51
2021/07/22 02:22:09;;;;;;;14.85;9.40;;;;;;;;;;5092278;28;20024;-50
2021/07/22 02:24:35;;;;;;;13.95;9.23;;;;;;;;;;5093675;28;20017;-50
2021/07/22 02:27:01;;;;;;;14.20;8.95;;;;;;;;;;5093702;28;20025;-50
2021/07/22 02:29:27;;;;;;;14.88;8.80;;;;;;;;;;5092808;28;20059;-49
2021/07/22 02:31:53;;;;;;;13.48;9.27;;;;;;;;;;5093651;28;20632;-50
2021/07/22 02:34:19;;;;;;;13.18;9.25;;;;;;;;;;5093513;28;20325;-49
2021/07/22 02:36:46;;;;;;;13.73;8.80;;;;;;;;;;5083604;28;20099;-49
2021/07/22 02:39:11;;;;;;;16.40;9.40;;;;;;;;;;5092373;28;20111;-52
2021/07/22 02:41:37;;;;;;;14.85;9.23;;;;;;;;;;5093318;28;20088;-49
2021/07/22 02:44:04;;;;;;;13.90;8.90;;;;;;;;;;5093274;28;20048;-50
2021/07/22 02:46:35;;;;;;;15.70;9.07;;;;;;;;;;5094262;28;20013;-51
2021/07/22 02:49:01;;;;;;;12.35;8.45;;;;;;;;;;5092943;28;20028;-50
2021/07/22 02:51:27;;;;;;;16.25;9.07;;;;;;;;;;5093200;28;20504;-50
2021/07/22 02:53:53;;;;;;;13.85;8.98;;;;;;;;;;5093008;28;20035;-50
2021/07/22 02:56:19;;;;;;;15.35;9.35;;;;;;;;;;5093502;28;20039;-50
2021/07/22 02:58:45;;;;;;;17.45;9.55;;;;;;;;;;5092927;28;20047;-49
2021/07/22 03:01:11;;;;;;;14.43;9.30;;;;;;;;;;5092999;28;20119;-49
2021/07/22 03:03:37;;;;;;;19.75;9.63;;;;;;;;;;5064897;28;20578;-50
2021/07/22 03:06:04;;;;;;;16.58;10.05;;;;;;;;;;5066974;28;20769;-50
2021/07/22 03:08:30;;;;;;;14.68;9.68;;;;;;;;;;5079986;28;20024;-50
2021/07/22 03:10:56;;;;;;;13.90;9.55;;;;;;;;;;5081192;28;20070;-49
2021/07/22 03:13:22;;;;;;;14.13;9.40;;;;;;;;;;5073628;28;20449;-50
2021/07/22 03:15:48;;;;;;;17.88;9.25;;;;;;;;;;5067866;28;20053;-49
2021/07/22 03:18:14;;;;;;;13.43;9.10;;;;;;;;;;5092173;28;20578;-49
2021/07/22 03:20:40;;;;;;;14.68;9.65;;;;;;;;;;5092670;28;20027;-51
2021/07/22 03:23:06;;;;;;;13.82;9.25;;;;;;;;;;5092522;28;20372;-50
2021/07/22 03:25:32;;;;;;;17.17;9.90;;;;;;;;;;5092447;28;20099;-50
2021/07/22 03:28:02;;;;;;;13.25;9.23;;;;;;;;;;5092129;28;20084;-51
2021/07/22 03:30:28;;;;;;;14.32;9.30;;;;;;;;;;5092713;28;20039;-51
2021/07/22 03:32:54;;;;;;;17.08;10.10;;;;;;;;;;5092272;28;20032;-49
2021/07/22 03:35:20;;;;;;;16.40;9.73;;;;;;;;;;5090965;28;20361;-50
2021/07/22 03:37:46;;;;;;;15.93;10.07;;;;;;;;;;5081407;28;20032;-50
2021/07/22 03:40:12;;;;;;;15.30;9.48;;;;;;;;;;5092154;28;20352;-50
2021/07/22 03:42:39;;;;;;;15.70;9.68;;;;;;;;;;5092149;28;20024;-50
2021/07/22 03:45:05;;;;;;;14.68;9.43;;;;;;;;;;5092276;28;20102;-49
2021/07/22 03:47:31;;;;;;;14.13;9.20;;;;;;;;;;5091980;28;20072;-50
2021/07/22 03:49:57;;;;;;;15.45;9.77;;;;;;;;;;5092111;28;20032;-49
2021/07/22 03:52:23;;;;;;;13.10;8.90;;;;;;;;;;5092122;28;20537;-50
2021/07/22 03:54:49;;;;;;;14.63;9.43;;;;;;;;;;5092068;28;20028;-53
2021/07/22 03:57:15;;;;;;;16.20;9.95;;;;;;;;;;5092025;28;20031;-50
2021/07/22 03:59:41;;;;;;;12.05;9.05;;;;;;;;;;5091716;28;20097;-51
2021/07/22 04:02:07;;;;;;;12.98;8.57;;;;;;;;;;5088538;28;20012;-53
2021/07/22 04:04:33;;;;;;;15.00;9.35;;;;;;;;;;5068519;28;20024;-51
2021/07/22 04:07:00;;;;;;;14.45;8.70;;;;;;;;;;5067038;28;20480;-50
2021/07/22 04:09:29;;;;;;;17.23;9.88;;;;;;;;;;5091252;28;20689;-50
2021/07/22 04:11:55;;;;;;;17.50;10.40;;;;;;;;;;5073525;28;20116;-50
2021/07/22 04:14:21;;;;;;;16.63;9.63;;;;;;;;;;5063886;28;20036;-50
2021/07/22 04:16:47;;;;;;;13.00;9.68;;;;;;;;;;5087269;28;20487;-50
2021/07/22 04:19:13;;;;;;;16.08;9.23;;;;;;;;;;5096009;28;20056;-50
2021/07/22 04:21:39;;;;;;;17.50;10.45;;;;;;;;;;5095861;28;20027;-50
2021/07/22 04:24:05;;;;;;;14.38;9.38;;;;;;;;;;5095724;28;20050;-49
2021/07/22 04:26:31;;;;;;;15.93;9.90;;;;;;;;;;5096116;28;20484;-51
2021/07/22 04:28:57;;;;;;;13.55;9.32;;;;;;;;;;5095658;28;20027;-50
2021/07/22 04:31:23;;;;;;;14.70;9.55;;;;;;;;;;5095974;28;20020;-50
2021/07/22 04:33:49;;;;;;;14.73;9.38;;;;;;;;;;5096338;28;20024;-50
2021/07/22 04:36:15;;;;;;;15.50;9.55;;;;;;;;;;5086837;28;20035;-50
2021/07/22 04:38:42;;;;;;;15.00;9.80;;;;;;;;;;5095498;28;20024;-50
2021/07/22 04:41:08;;;;;;;13.77;10.02;;;;;;;;;;5095678;28;20050;-50
2021/07/22 04:43:34;;;;;;;22.25;10.77;;;;;;;;;;5095695;28;20028;-50
2021/07/22 04:46:04;;;;;;;15.77;9.73;;;;;;;;;;5095629;28;20020;-49
2021/07/22 04:48:31;;;;;;;18.73;9.63;;;;;;;;;;5095370;28;20434;-50
2021/07/22 04:50:57;;;;;;;17.02;10.38;;;;;;;;;;5095231;28;20489;-50
2021/07/22 04:53:23;;;;;;;17.60;10.68;;;;;;;;;;5095281;28;20036;-49
2021/07/22 04:55:49;;;;;;;15.57;9.80;;;;;;;;;;5095461;28;20379;-50
2021/07/22 04:58:15;;;;;;;16.95;9.98;;;;;;;;;;5095070;28;20031;-50
2021/07/22 05:00:41;;;;;;;15.73;10.65;;;;;;;;;;5081754;28;20031;-51
2021/07/22 05:03:07;;;;;;;15.43;10.00;;;;;;;;;;5075439;28;20021;-50
2021/07/22 05:05:35;;;;;;;18.45;9.88;;;;;;;;;;5083105;28;20035;-50
2021/07/22 05:08:02;;;;;;;18.85;10.40;;;;;;;;;;5075703;28;20020;-50
2021/07/22 05:10:27;;;;;;;15.95;10.07;;;;;;;;;;5086482;28;20500;-49
2021/07/22 05:13:00;;;;;;;15.32;10.15;;;;;;;;;;5080089;28;20437;-51
2021/07/22 05:15:27;;;;;;;17.30;10.07;;;;;;;;;;5063511;28;20107;-49
2021/07/22 05:17:53;;;;;;;15.13;9.48;;;;;;;;;;5093322;28;20028;-50
2021/07/22 05:20:19;;;;;;;13.13;9.52;;;;;;;;;;5093548;28;20081;-50
2021/07/22 05:22:45;;;;;;;15.98;9.70;;;;;;;;;;5093402;28;20104;-50
2021/07/22 05:25:11;;;;;;;15.05;9.38;;;;;;;;;;5093673;28;20062;-50
2021/07/22 05:27:37;;;;;;;18.92;10.05;;;;;;;;;;5093100;28;20106;-50
2021/07/22 05:30:04;;;;;;;17.27;8.85;;;;;;;;;;5093936;28;20123;-50
2021/07/22 05:32:30;;;;;;;17.30;9.38;;;;;;;;;;5093410;28;20028;-49
2021/07/22 05:34:56;;;;;;;14.52;9.82;;;;;;;;;;5093644;28;20085;-49
2021/07/22 05:37:22;;;;;;;17.05;9.30;;;;;;;;;;5083093;28;20028;-51
2021/07/22 05:39:48;;;;;;;13.38;8.52;;;;;;;;;;5073560;28;20042;-49
2021/07/22 05:42:14;;;;;;;14.68;9.00;;;;;;;;;;5093398;28;20546;-50
2021/07/22 05:44:40;;;;;;;16.15;9.82;;;;;;;;;;5093447;28;20099;-49
2021/07/22 05:47:06;;;;;;;15.70;9.25;;;;;;;;;;5093291;28;20115;-49
2021/07/22 05:49:32;;;;;;;11.73;8.35;;;;;;;;;;5085619;28;20099;-49
2021/07/22 05:51:58;;;;;;;17.30;9.30;;;;;;;;;;5093604;28;20069;-49
2021/07/22 05:54:24;;;;;;;14.93;9.10;;;;;;;;;;5092786;28;20027;-50
2021/07/22 05:56:50;;;;;;;17.02;8.35;;;;;;;;;;5093371;28;20028;-50
2021/07/22 05:59:16;;;;;;;18.13;9.18;;;;;;;;;;5092536;28;20028;-51
2021/07/22 06:01:42;;;;;;;14.60;9.55;;;;;;;;;;5092982;28;20027;-50
2021/07/22 06:04:08;;;;;;;14.30;9.15;;;;;;;;;;5066100;28;20028;-50
2021/07/22 06:06:34;;;;;;;15.68;9.43;;;;;;;;;;5093009;28;20024;-49
2021/07/22 06:09:01;;;;;;;14.70;8.05;;;;;;;;;;5057425;28;992673;-49
2021/07/22 06:11:27;;;;;;;14.23;8.35;;;;;;;;;;5078401;28;20024;-50
2021/07/22 06:13:53;;;;;;;13.15;8.95;;;;;;;;;;5071887;28;20035;-51
2021/07/22 06:16:19;;;;;;;13.82;7.85;;;;;;;;;;5078059;28;20146;-50
2021/07/22 06:18:45;;;;;;;14.10;8.50;;;;;;;;;;5082495;28;20029;-50
2021/07/22 06:21:12;;;;;;;12.93;8.10;;;;;;;;;;5065731;28;20040;-49
2021/07/22 06:23:39;;;;;;;17.63;8.13;;;;;;;;;;5092866;28;20081;-51
2021/07/22 06:26:04;;;;;;;13.18;8.48;;;;;;;;;;5093758;28;20031;-50
2021/07/22 06:28:30;;;;;;;11.82;7.80;;;;;;;;;;5093182;28;20396;-50
2021/07/22 06:30:56;;;;;;;15.18;8.25;;;;;;;;;;5093417;28;20045;-49
2021/07/22 06:33:23;;;;;;;12.20;8.15;;;;;;;;;;5093350;28;20016;-50
2021/07/22 06:35:49;;;;;;;16.23;7.93;;;;;;;;;;5093911;28;20454;-50
2021/07/22 06:38:15;;;;;;;16.02;8.43;;;;;;;;;;5091966;28;20032;-51
2021/07/22 06:40:41;;;;;;;12.50;8.65;;;;;;;;;;5093455;28;20103;-51
2021/07/22 06:43:08;;;;;;;18.05;8.40;;;;;;;;;;5093292;28;20452;-49
2021/07/22 06:45:34;;;;;;;11.65;7.15;;;;;;;;;;5093063;28;20027;-52
2021/07/22 06:48:02;;;;;;;15.32;7.57;;;;;;;;;;5092941;28;20043;-51
2021/07/22 06:50:28;;;;;;;13.15;7.97;;;;;;;;;;5081315;28;20027;-49
2021/07/22 06:52:54;;;;;;;11.90;7.38;;;;;;;;;;5093259;28;20028;-50
2021/07/22 06:55:20;;;;;;;15.18;8.40;;;;;;;;;;5092708;28;20031;-52
2021/07/22 06:57:48;;;;;;;11.77;6.97;;;;;;;;;;5093032;28;20034;-51
2021/07/22 07:00:14;;;;;;;15.90;8.35;;;;;;;;;;5085723;28;20031;-49
2021/07/22 07:02:40;;;;;;;13.05;7.60;;;;;;;;;;5080628;28;20025;-49
2021/07/22 07:05:07;;;;;;;11.13;7.10;;;;;;;;;;5079388;28;20028;-50
2021/07/22 07:07:33;;;;;;;10.63;6.72;;;;;;;;;;5092809;28;20052;-50
2021/07/22 07:09:59;;;;;;;10.55;7.00;;;;;;;;;;5088496;28;20087;-50
2021/07/22 07:12:25;;;;;;;10.30;6.47;;;;;;;;;;5079779;28;20033;-51
2021/07/22 07:14:51;;;;;;;18.38;7.53;;;;;;;;;;5056116;28;20044;-50
2021/07/22 07:17:17;;;;;;;14.10;7.57;;;;;;;;;;5092771;28;20373;-50
2021/07/22 07:19:43;;;;;;;16.10;7.40;;;;;;;;;;5085977;28;20024;-49
2021/07/22 07:22:09;;;;;;;9.18;6.13;;;;;;;;;;5092537;28;20454;-50
2021/07/22 07:24:35;;;;;;;11.90;7.82;;;;;;;;;;5091178;28;20521;-51
2021/07/22 07:27:01;;;;;;;10.45;7.30;;;;;;;;;;5083435;28;20078;-50
2021/07/22 07:29:27;;;;;;;12.13;6.70;;;;;;;;;;5092101;28;20039;-50
2021/07/22 07:31:57;;;;;;;13.10;6.57;;;;;;;;;;5092546;28;20032;-50
2021/07/22 07:34:23;;;;;;;13.23;7.70;;;;;;;;;;5092479;28;20028;-50
2021/07/22 07:36:49;;;;;;;11.40;6.95;;;;;;;;;;5092238;28;20051;-50
2021/07/22 07:39:16;;;;;;;10.57;5.95;;;;;;;;;;5091735;28;20077;-50
2021/07/22 07:41:42;;;;;;;11.35;6.18;;;;;;;;;;5092179;28;20016;-50
2021/07/22 07:44:08;;;;;;;10.15;6.25;;;;;;;;;;5092613;28;20040;-50
2021/07/22 07:46:34;;;;;;;12.00;6.90;;;;;;;;;;5092365;28;20028;-50
2021/07/22 07:49:00;;;;;;;10.65;6.07;;;;;;;;;;5091824;28;20027;-50
2021/07/22 07:51:26;;;;;;;12.07;6.85;;;;;;;;;;5092285;28;20367;-52
2021/07/22 07:53:52;;;;;;;13.40;7.32;;;;;;;;;;5092153;28;20064;-50
2021/07/22 07:56:18;;;;;;;11.02;6.22;;;;;;;;;;5091206;28;20032;-51
2021/07/22 07:58:44;;;;;;;9.90;6.25;;;;;;;;;;5091592;28;20064;-50
2021/07/22 08:01:10;;;;;;;10.25;6.38;;;;;;;;;;5086920;28;20443;-51
2021/07/22 08:03:38;;;;;;;10.68;6.25;;;;;;;;;;5073572;28;20024;-50
2021/07/22 08:06:04;;;;;;;10.18;6.90;;;;;;;;;;5072174;28;20588;-50
2021/07/22 08:08:30;;;;;;;8.35;5.80;;;;;;;;;;5085746;28;20035;-51
2021/07/22 08:10:58;;;;;;;9.43;6.30;;;;;;;;;;5080244;28;20111;-50
2021/07/22 08:13:25;;;;;;;11.65;6.75;;;;;;;;;;5073999;28;20545;-49
2021/07/22 08:15:51;;;;;;;7.80;5.82;;;;;;;;;;5068411;28;20024;-49
2021/07/22 08:18:17;;;;;;;13.13;6.40;;;;;;;;;;5091659;28;20519;-49
2021/07/22 08:20:43;;;;;;;12.18;6.47;;;;;;;;;;5092000;28;20035;-49
2021/07/22 08:23:09;;;;;;;12.88;6.95;;;;;;;;;;5091664;28;20023;-49
2021/07/22 08:25:36;;;;;;;12.75;6.75;;;;;;;;;;5091558;28;20028;-50
2021/07/22 08:28:02;;;;;;;12.65;6.55;;;;;;;;;;5091680;28;20028;-50
2021/07/22 08:30:28;;;;;;;11.90;6.65;;;;;;;;;;5091825;28;20051;-51
2021/07/22 08:32:54;;;;;;;10.32;7.25;;;;;;;;;;5091554;28;20032;-50
2021/07/22 08:35:20;;;;;;;15.40;6.13;;;;;;;;;;5091273;28;20082;-50
2021/07/22 08:37:47;;;;;;;9.57;5.97;;;;;;;;;;5082965;28;20028;-51
2021/07/22 08:40:14;;;;;;;9.77;6.13;;;;;;;;;;5089915;28;20031;-51
2021/07/22 08:42:43;;;;;;;9.02;6.28;;;;;;;;;;5091850;28;20111;-50
2021/07/22 08:45:09;;;;;;;10.45;6.32;;;;;;;;;;5092129;28;20116;-50
2021/07/22 08:47:36;;;;;;;8.57;5.85;;;;;;;;;;5085796;28;20028;-51
2021/07/22 08:50:02;;;;;;;9.48;6.10;;;;;;;;;;5091682;28;20068;-50
2021/07/22 08:52:28;;;;;;;7.95;5.60;;;;;;;;;;5089892;28;20433;-50
2021/07/22 08:54:54;;;;;;;9.85;5.90;;;;;;;;;;5072958;28;20036;-49
2021/07/22 08:57:22;;;;;;;7.68;5.28;;;;;;;;;;5086544;28;20035;-50
2021/07/22 08:59:48;;;;;;;10.63;5.25;;;;;;;;;;5089417;28;20024;-50
2021/07/22 09:02:17;;;;;;;10.27;5.07;;;;;;;;;;5085572;28;20023;-50
2021/07/22 09:04:54;;;;;;;7.93;5.65;;;;;;;;;;5074660;28;20130;-50
2021/07/22 09:07:21;;;;;;;9.60;5.57;;;;;;;;;;5094865;28;20024;-50
2021/07/22 09:10:05;;;;;;;7.95;5.03;;;;;;;;;;5092607;28;20139;-50
2021/07/22 09:12:38;;;;;;;9.38;5.22;;;;;;;;;;5069676;28;20085;-50
2021/07/22 09:15:05;;;;;;;10.70;5.68;;;;;;;;;;5058271;28;20067;-51
2021/07/22 09:17:31;;;;;;;9.23;5.78;;;;;;;;;;5093425;28;20113;-50
2021/07/22 09:19:57;;;;;;;11.70;6.00;;;;;;;;;;5094760;28;20036;-54
2021/07/22 09:22:40;;;;;;;8.48;5.32;;;;;;;;;;5095061;28;20028;-51
2021/07/22 09:25:07;;;;;;;8.68;5.43;;;;;;;;;;5094856;28;20020;-50
2021/07/22 09:27:33;;;;;;;11.10;5.05;;;;;;;;;;5094728;28;20024;-55
2021/07/22 09:30:00;;;;;;;12.75;6.07;;;;;;;;;;5090021;28;20089;-51
2021/07/22 09:32:32;;;;;;;7.97;5.50;;;;;;;;;;5067792;28;20024;-50
2021/07/22 09:35:09;;;;;;;6.78;4.75;;;;;;;;;;5094760;28;20036;-50
2021/07/22 09:37:45;;;;;;;7.10;4.82;;;;;;;;;;5094329;28;20119;-52
2021/07/22 09:40:12;;;;;;;9.18;5.10;;;;;;;;;;5094372;28;20032;-51
2021/07/22 09:42:42;;;;;;;9.52;5.45;;;;;;;;;;5094674;28;20039;-53
2021/07/22 09:45:27;;;;;;;10.60;5.45;;;;;;;;;;5094570;28;20028;-52
2021/07/22 09:47:57;;;;;;;8.40;5.25;;;;;;;;;;5094061;28;20028;-50
2021/07/22 09:50:24;;;;;;;10.48;5.72;;;;;;;;;;5094512;28;20750;-52
2021/07/22 09:53:08;;;;;;;8.60;5.55;;;;;;;;;;5090989;28;20024;-50
2021/07/22 09:55:35;;;;;;;7.20;5.10;;;;;;;;;;5091152;28;20534;-50
2021/07/22 09:58:02;;;;;;;8.60;5.35;;;;;;;;;;5094095;28;20024;-50
2021/07/22 10:00:29;;;;;;;7.38;5.20;;;;;;;;;;5093688;28;20153;-50
2021/07/22 10:02:56;;;;;;;10.15;5.88;;;;;;;;;;5077479;28;20021;-50
2021/07/22 10:05:23;;;;;;;10.48;6.45;;;;;;;;;;5084578;28;20095;-50
2021/07/22 10:07:50;;;;;;;9.05;6.18;;;;;;;;;;5093818;28;20024;-50
2021/07/22 10:10:16;;;;;;;10.15;5.82;;;;;;;;;;5087766;28;20060;-50
2021/07/22 10:12:56;;;;;;;8.90;5.93;;;;;;;;;;5080495;28;20047;-50
2021/07/22 10:15:23;;;;;;;13.13;5.78;;;;;;;;;;5061517;28;20024;-50
2021/07/22 10:17:51;;;;;;;10.95;6.70;;;;;;;;;;5085619;28;20028;-50
2021/07/22 10:20:18;;;;;;;10.10;5.78;;;;;;;;;;5093737;28;20016;-51
2021/07/22 10:22:44;;;;;;;8.60;5.75;;;;;;;;;;5093938;28;20356;-51
2021/07/22 10:25:14;;;;;;;10.32;5.95;;;;;;;;;;5093691;28;20016;-50
2021/07/22 10:27:42;;;;;;;13.82;6.20;;;;;;;;;;5093302;28;20028;-50
2021/07/22 10:30:09;;;;;;;11.63;6.20;;;;;;;;;;5093781;28;20074;-51
2021/07/22 10:32:35;;;;;;;13.18;5.95;;;;;;;;;;5093645;28;20032;-49
2021/07/22 10:35:01;;;;;;;11.57;6.13;;;;;;;;;;5093434;28;20110;-50
2021/07/22 10:37:27;;;;;;;10.40;6.78;;;;;;;;;;5093584;28;20107;-50
2021/07/22 10:40:08;;;;;;;11.07;5.50;;;;;;;;;;5092948;28;20093;-50
2021/07/22 10:42:40;;;;;;;10.25;6.55;;;;;;;;;;5093413;28;20383;-50
2021/07/22 10:45:18;;;;;;;10.35;6.55;;;;;;;;;;5093502;28;20468;-51
2021/07/22 10:48:00;;;;;;;10.23;6.15;;;;;;;;;;5076328;28;20368;-50
2021/07/22 10:50:38;;;;;;;9.80;6.45;;;;;;;;;;5093125;28;20099;-50
2021/07/22 10:53:04;;;;;;;9.68;6.57;;;;;;;;;;5091874;28;20044;-50
2021/07/22 10:55:43;;;;;;;10.38;6.55;;;;;;;;;;5093030;28;20024;-50
2021/07/22 10:58:24;;;;;;;11.93;6.53;;;;;;;;;;5092955;28;20024;-50
2021/07/22 11:00:50;;;;;;;9.40;6.25;;;;;;;;;;5088291;28;20115;-52
2021/07/22 11:06:20;;;;;;;8.95;5.82;;;;;;;;;;5066847;28;20038;-51
2021/07/22 11:09:05;;;;;;;8.20;5.85;;;;;;;;;;5092377;28;20503;-50
2021/07/22 11:11:46;;;;;;;12.43;7.00;;;;;;;;;;5076291;28;20115;-50
2021/07/22 11:14:31;;;;;;;20.13;7.28;;;;;;;;;;5052955;28;20040;-50
2021/07/22 11:16:58;;;;;;;9.85;6.35;;;;;;;;;;5086971;28;20077;-50
2021/07/22 11:19:24;;;;;;;11.88;6.53;;;;;;;;;;5092212;28;20017;-50
2021/07/22 11:21:50;;;;;;;10.48;6.70;;;;;;;;;;5087512;28;20027;-50
2021/07/22 11:24:23;;;;;;;11.48;7.07;;;;;;;;;;5083292;28;20032;-50
2021/07/22 11:26:50;;;;;;;13.07;6.93;;;;;;;;;;5092651;28;20697;-50
2021/07/22 11:29:16;;;;;;;13.00;8.15;;;;;;;;;;5092343;28;20024;-50
2021/07/22 11:31:46;;;;;;;9.15;6.80;;;;;;;;;;5084256;28;20024;-50
2021/07/22 11:34:13;;;;;;;10.45;6.35;;;;;;;;;;5092463;28;20016;-50
2021/07/22 11:36:39;;;;;;;10.25;6.55;;;;;;;;;;5092489;28;20024;-50
2021/07/22 11:39:06;;;;;;;10.90;6.93;;;;;;;;;;5091897;28;20028;-53
2021/07/22 11:41:32;;;;;;;10.38;6.63;;;;;;;;;;5092573;28;20398;-51
2021/07/22 11:43:59;;;;;;;12.50;6.93;;;;;;;;;;5092131;28;20099;-50
2021/07/22 11:46:34;;;;;;;13.32;7.35;;;;;;;;;;5087238;28;20031;-50
2021/07/22 11:49:17;;;;;;;12.55;6.82;;;;;;;;;;5092010;28;20622;-50
2021/07/22 11:51:44;;;;;;;12.90;7.20;;;;;;;;;;5092494;28;20024;-52
2021/07/22 11:54:11;;;;;;;11.05;6.70;;;;;;;;;;5092434;28;20391;-52
2021/07/22 11:56:37;;;;;;;9.93;6.50;;;;;;;;;;5088498;28;20078;-50
2021/07/22 11:59:08;;;;;;;9.40;6.20;;;;;;;;;;5090226;28;20032;-50
2021/07/22 12:01:34;;;;;;;12.25;7.18;;;;;;;;;;5091704;28;20031;-52
2021/07/22 12:04:01;;;;;;;10.30;6.60;;;;;;;;;;5064699;28;20020;-50
2021/07/22 12:06:27;;;;;;;10.10;6.68;;;;;;;;;;5092310;28;20049;-50
2021/07/22 12:09:06;;;;;;;9.55;5.80;;;;;;;;;;5091405;28;20533;-52
2021/07/22 12:11:49;;;;;;;9.13;6.22;;;;;;;;;;5075439;28;20483;-52
2021/07/22 12:14:37;;;;;;;12.40;6.55;;;;;;;;;;5051940;28;20044;-50
2021/07/22 12:17:07;;;;;;;8.48;5.57;;;;;;;;;;5087696;28;20103;-50
2021/07/22 12:19:34;;;;;;;9.25;5.95;;;;;;;;;;5083023;28;20371;-50
2021/07/22 12:22:19;;;;;;;10.48;6.38;;;;;;;;;;5091535;28;20066;-50
2021/07/22 12:24:48;;;;;;;9.50;6.18;;;;;;;;;;5091979;28;20460;-50
2021/07/22 12:27:32;;;;;;;9.25;6.03;;;;;;;;;;5091940;28;20020;-50
2021/07/22 12:29:59;;;;;;;10.00;7.05;;;;;;;;;;5086171;28;20077;-53
2021/07/22 12:32:28;;;;;;;9.50;6.57;;;;;;;;;;5082846;28;20055;-50
2021/07/22 12:34:54;;;;;;;11.43;6.93;;;;;;;;;;5091996;28;20043;-50
2021/07/22 12:37:20;;;;;;;13.13;7.07;;;;;;;;;;5094119;28;20039;-50
2021/07/22 12:39:46;;;;;;;15.88;6.97;;;;;;;;;;5093343;28;20380;-50
2021/07/22 12:42:13;;;;;;;11.18;6.40;;;;;;;;;;5095686;28;20024;-50
2021/07/22 12:44:44;;;;;;;11.90;7.15;;;;;;;;;;5095356;28;20020;-53
2021/07/22 12:47:46;;;;;;;11.23;6.68;;;;;;;;;;5086433;28;20021;-50
2021/07/22 12:50:27;;;;;;;10.15;6.30;;;;;;;;;;5007430;28;20520;-50
2021/07/22 12:52:53;;;;;;;13.05;7.18;;;;;;;;;;5065609;28;20044;-50
2021/07/22 12:55:29;;;;;;;11.75;7.75;;;;;;;;;;5082642;28;20044;-50
2021/07/22 12:57:55;;;;;;;9.77;6.65;;;;;;;;;;5082698;28;20403;-50
2021/07/22 13:00:21;;;;;;;10.60;6.93;;;;;;;;;;5089412;28;20456;-51
2021/07/22 13:03:00;;;;;;;12.40;6.88;;;;;;;;;;5080862;28;20032;-49
2021/07/22 13:05:27;;;;;;;12.75;7.45;;;;;;;;;;5086342;28;20119;-50
2021/07/22 13:07:53;;;;;;;12.98;7.65;;;;;;;;;;5095184;28;20020;-50
2021/07/22 13:10:20;;;;;;;13.38;7.38;;;;;;;;;;5090861;28;20123;-50
2021/07/22 13:12:47;;;;;;;13.18;7.53;;;;;;;;;;5092386;28;20024;-50
2021/07/22 13:15:13;;;;;;;11.88;7.47;;;;;;;;;;5066359;28;20039;-51
2021/07/22 13:17:39;;;;;;;11.75;6.85;;;;;;;;;;5094753;28;20054;-50
2021/07/22 13:20:13;;;;;;;12.20;7.55;;;;;;;;;;5094909;28;20036;-50
2021/07/22 13:22:39;;;;;;;9.88;6.65;;;;;;;;;;5094705;28;20161;-51
2021/07/22 13:25:05;;;;;;;12.10;7.45;;;;;;;;;;5094798;28;20115;-50
2021/07/22 13:27:35;;;;;;;10.43;6.63;;;;;;;;;;5094712;28;20392;-50
2021/07/22 13:30:01;;;;;;;10.77;6.95;;;;;;;;;;5093415;28;20024;-51
2021/07/22 13:32:28;;;;;;;10.70;6.72;;;;;;;;;;5094722;28;20024;-50
2021/07/22 13:34:54;;;;;;;12.35;7.20;;;;;;;;;;5094786;28;20529;-52
2021/07/22 13:37:20;;;;;;;15.45;8.38;;;;;;;;;;5088091;28;20040;-50
2021/07/22 13:39:46;;;;;;;15.57;7.55;;;;;;;;;;5094077;28;20475;-50
2021/07/22 13:42:12;;;;;;;13.40;7.03;;;;;;;;;;5094660;28;20025;-50
2021/07/22 13:44:38;;;;;;;11.23;7.07;;;;;;;;;;5094367;28;20017;-50
2021/07/22 13:47:04;;;;;;;12.52;7.85;;;;;;;;;;5094338;28;20119;-50
2021/07/22 13:49:30;;;;;;;11.65;7.53;;;;;;;;;;5093950;28;20051;-50
2021/07/22 13:51:56;;;;;;;11.63;8.00;;;;;;;;;;5082326;28;20448;-51
2021/07/22 13:54:22;;;;;;;13.02;8.05;;;;;;;;;;5093454;28;20028;-50
2021/07/22 13:56:48;;;;;;;11.68;7.57;;;;;;;;;;5094622;28;20016;-50
2021/07/22 13:59:14;;;;;;;13.73;7.82;;;;;;;;;;5090347;28;20048;-50
2021/07/22 14:01:40;;;;;;;11.65;7.95;;;;;;;;;;5086991;28;20027;-50
2021/07/22 14:04:06;;;;;;;13.32;8.52;;;;;;;;;;5067317;28;20016;-50
2021/07/22 14:06:32;;;;;;;18.77;7.82;;;;;;;;;;5085994;28;20082;-50
2021/07/22 14:08:58;;;;;;;13.52;8.07;;;;;;;;;;5091569;28;20047;-50
2021/07/22 14:11:24;;;;;;;12.55;7.90;;;;;;;;;;5078735;28;20036;-50
2021/07/22 14:13:50;;;;;;;14.15;8.30;;;;;;;;;;5071998;28;20110;-50
2021/07/22 14:16:16;;;;;;;11.32;8.05;;;;;;;;;;5077574;28;20039;-50
2021/07/22 14:18:42;;;;;;;13.23;8.10;;;;;;;;;;5093580;28;20028;-51
2021/07/22 14:21:08;;;;;;;13.32;8.27;;;;;;;;;;5093728;28;20040;-50
2021/07/22 14:23:34;;;;;;;11.73;7.88;;;;;;;;;;5093907;28;20035;-50
2021/07/22 14:26:01;;;;;;;12.60;8.65;;;;;;;;;;5093698;28;20041;-50
2021/07/22 14:28:27;;;;;;;14.68;8.40;;;;;;;;;;5093163;28;20387;-50
2021/07/22 14:30:53;;;;;;;15.05;9.25;;;;;;;;;;5093777;28;20039;-50
2021/07/22 14:33:19;;;;;;;11.57;7.85;;;;;;;;;;5093468;28;20032;-52
2021/07/22 14:35:44;;;;;;;12.52;7.68;;;;;;;;;;5092734;28;20488;-52